sensor_id;sensor_type;location;lat;lon;timestamp;temperature;humidity
32348;DHT22;18821;44.800;10.326;2023-05-07T00:00:21;18.80;1.00
32348;DHT22;18821;44.800;10.326;2023-05-07T00:02:47;18.80;1.00
32348;DHT22;18821;44.800;10.326;2023-05-07T00:05:14;18.80;1.00
32348;DHT22;18821;44.800;10.326;2023-05-07T00:07:40;18.80;1.00
32348;DHT22;18821;44.800;10.326;2023-05-07T00:10:06;18.80;1.00
32348;DHT22;18821;44.800;10.326;2023-05-07T00:12:32;18.80;99.90
32348;DHT22;18821;44.800;10.326;2023-05-07T00:15:03;18.70;1.00
32348;DHT22;18821;44.800;10.326;2023-05-07T00:17:30;18.70;99.90
32348;DHT22;18821;44.800;10.326;2023-05-07T00:19:56;18.60;99.90
32348;DHT22;18821;44.800;10.326;2023-05-07T00:22:22;18.60;99.90
32348;DHT22;18821;44.800;10.326;2023-05-07T00:24:47;18.60;99.90
32348;DHT22;18821;44.800;10.326;2023-05-07T00:27:13;18.60;1.00
32348;DHT22;18821;44.800;10.326;2023-05-07T00:29:39;18.60;1.00
32348;DHT22;18821;44.800;10.326;2023-05-07T00:32:05;18.60;1.00
32348;DHT22;18821;44.800;10.326;2023-05-07T00:34:31;18.50;1.00
32348;DHT22;18821;44.800;10.326;2023-05-07T00:36:57;18.50;1.00
32348;DHT22;18821;44.800;10.326;2023-05-07T00:39:23;18.50;1.00
32348;DHT22;18821;44.800;10.326;2023-05-07T00:41:49;18.50;1.00
32348;DHT22;18821;44.800;10.326;2023-05-07T00:44:14;18.50;1.00
32348;DHT22;18821;44.800;10.326;2023-05-07T00:46:41;18.40;1.00
32348;DHT22;18821;44.800;10.326;2023-05-07T00:49:07;18.40;1.00
32348;DHT22;18821;44.800;10.326;2023-05-07T00:51:33;18.40;1.00
32348;DHT22;18821;44.800;10.326;2023-05-07T00:54:01;18.40;1.00
32348;DHT22;18821;44.800;10.326;2023-05-07T00:56:27;18.40;1.00
32348;DHT22;18821;44.800;10.326;2023-05-07T00:58:53;18.30;1.00
32348;DHT22;18821;44.800;10.326;2023-05-07T01:01:19;18.40;1.00
32348;DHT22;18821;44.800;10.326;2023-05-07T01:03:45;18.40;1.00
32348;DHT22;18821;44.800;10.326;2023-05-07T01:06:12;18.30;1.00
32348;DHT22;18821;44.800;10.326;2023-05-07T01:08:39;18.20;1.00
32348;DHT22;18821;44.800;10.326;2023-05-07T01:11:10;18.30;1.00
32348;DHT22;18821;44.800;10.326;2023-05-07T01:13:37;18.30;1.00
32348;DHT22;18821;44.800;10.326;2023-05-07T01:16:04;18.30;1.00
32348;DHT22;18821;44.800;10.326;2023-05-07T01:18:30;18.30;1.00
32348;DHT22;18821;44.800;10.326;2023-05-07T01:20:58;18.30;1.00
32348;DHT22;18821;44.800;10.326;2023-05-07T01:23:27;18.20;1.00
32348;DHT22;18821;44.800;10.326;2023-05-07T01:25:54;18.20;1.00
32348;DHT22;18821;44.800;10.326;2023-05-07T01:28:22;18.20;1.00
32348;DHT22;18821;44.800;10.326;2023-05-07T01:30:54;18.10;1.00
32348;DHT22;18821;44.800;10.326;2023-05-07T01:33:22;18.10;1.00
32348;DHT22;18821;44.800;10.326;2023-05-07T01:35:53;18.10;1.00
32348;DHT22;18821;44.800;10.326;2023-05-07T01:38:20;18.10;1.00
32348;DHT22;18821;44.800;10.326;2023-05-07T01:40:47;18.10;1.00
32348;DHT22;18821;44.800;10.326;2023-05-07T01:43:13;18.10;1.00
32348;DHT22;18821;44.800;10.326;2023-05-07T01:45:40;18.00;1.00
32348;DHT22;18821;44.800;10.326;2023-05-07T01:48:07;18.00;1.00
32348;DHT22;18821;44.800;10.326;2023-05-07T01:50:33;18.00;1.00
32348;DHT22;18821;44.800;10.326;2023-05-07T01:53:01;18.00;1.00
32348;DHT22;18821;44.800;10.326;2023-05-07T01:55:28;18.00;1.00
32348;DHT22;18821;44.800;10.326;2023-05-07T01:57:54;18.00;1.00
32348;DHT22;18821;44.800;10.326;2023-05-07T02:00:20;18.00;1.00
32348;DHT22;18821;44.800;10.326;2023-05-07T02:02:46;17.90;1.00
32348;DHT22;18821;44.800;10.326;2023-05-07T02:05:27;17.90;1.10
32348;DHT22;18821;44.800;10.326;2023-05-07T02:08:04;18.00;1.00
32348;DHT22;18821;44.800;10.326;2023-05-07T02:10:31;17.80;1.00
32348;DHT22;18821;44.800;10.326;2023-05-07T02:12:58;17.80;1.00
32348;DHT22;18821;44.800;10.326;2023-05-07T02:15:25;17.80;1.00
32348;DHT22;18821;44.800;10.326;2023-05-07T02:18:06;17.70;1.00
32348;DHT22;18821;44.800;10.326;2023-05-07T02:20:32;17.70;1.00
32348;DHT22;18821;44.800;10.326;2023-05-07T02:22:58;17.70;1.00
32348;DHT22;18821;44.800;10.326;2023-05-07T02:25:27;17.70;1.00
32348;DHT22;18821;44.800;10.326;2023-05-07T02:27:52;17.60;1.00
32348;DHT22;18821;44.800;10.326;2023-05-07T02:30:23;17.60;1.00
32348;DHT22;18821;44.800;10.326;2023-05-07T02:32:52;17.50;1.00
32348;DHT22;18821;44.800;10.326;2023-05-07T02:35:18;17.50;3.70
32348;DHT22;18821;44.800;10.326;2023-05-07T02:37:44;17.50;5.50
32348;DHT22;18821;44.800;10.326;2023-05-07T02:40:10;17.40;1.90
32348;DHT22;18821;44.800;10.326;2023-05-07T02:42:36;17.50;1.00
32348;DHT22;18821;44.800;10.326;2023-05-07T02:45:03;17.40;1.00
32348;DHT22;18821;44.800;10.326;2023-05-07T02:47:30;17.50;1.00
32348;DHT22;18821;44.800;10.326;2023-05-07T02:49:58;17.40;1.00
32348;DHT22;18821;44.800;10.326;2023-05-07T02:52:24;17.40;1.00
32348;DHT22;18821;44.800;10.326;2023-05-07T02:54:49;17.40;1.00
32348;DHT22;18821;44.800;10.326;2023-05-07T02:57:16;17.40;1.00
32348;DHT22;18821;44.800;10.326;2023-05-07T02:59:42;17.40;1.00
32348;DHT22;18821;44.800;10.326;2023-05-07T03:02:08;17.30;1.00
32348;DHT22;18821;44.800;10.326;2023-05-07T03:04:34;17.30;1.00
32348;DHT22;18821;44.800;10.326;2023-05-07T03:07:00;17.20;1.00
32348;DHT22;18821;44.800;10.326;2023-05-07T03:09:26;17.20;1.00
32348;DHT22;18821;44.800;10.326;2023-05-07T03:11:52;17.00;1.00
32348;DHT22;18821;44.800;10.326;2023-05-07T03:14:18;17.00;1.00
32348;DHT22;18821;44.800;10.326;2023-05-07T03:16:44;17.00;1.00
32348;DHT22;18821;44.800;10.326;2023-05-07T03:19:10;16.90;1.00
32348;DHT22;18821;44.800;10.326;2023-05-07T03:21:36;16.80;1.00
32348;DHT22;18821;44.800;10.326;2023-05-07T03:24:01;16.80;1.00
32348;DHT22;18821;44.800;10.326;2023-05-07T03:26:27;16.70;1.00
32348;DHT22;18821;44.800;10.326;2023-05-07T03:28:54;16.70;1.00
32348;DHT22;18821;44.800;10.326;2023-05-07T03:31:20;16.60;1.00
32348;DHT22;18821;44.800;10.326;2023-05-07T03:33:53;16.60;1.00
32348;DHT22;18821;44.800;10.326;2023-05-07T03:36:20;16.60;1.00
32348;DHT22;18821;44.800;10.326;2023-05-07T03:38:49;16.70;1.00
32348;DHT22;18821;44.800;10.326;2023-05-07T03:41:21;16.70;1.00
32348;DHT22;18821;44.800;10.326;2023-05-07T03:43:47;16.70;1.00
32348;DHT22;18821;44.800;10.326;2023-05-07T03:46:14;16.60;1.00
32348;DHT22;18821;44.800;10.326;2023-05-07T03:48:40;16.50;1.00
32348;DHT22;18821;44.800;10.326;2023-05-07T03:51:06;16.40;1.00
32348;DHT22;18821;44.800;10.326;2023-05-07T03:53:33;16.40;1.00
32348;DHT22;18821;44.800;10.326;2023-05-07T03:55:59;16.40;1.00
32348;DHT22;18821;44.800;10.326;2023-05-07T03:58:26;16.40;1.00
32348;DHT22;18821;44.800;10.326;2023-05-07T04:00:54;16.50;1.00
32348;DHT22;18821;44.800;10.326;2023-05-07T04:03:25;16.50;1.00
32348;DHT22;18821;44.800;10.326;2023-05-07T04:05:52;16.50;1.00
32348;DHT22;18821;44.800;10.326;2023-05-07T04:08:18;16.60;1.00
32348;DHT22;18821;44.800;10.326;2023-05-07T04:10:47;16.50;1.00
32348;DHT22;18821;44.800;10.326;2023-05-07T04:13:13;16.50;1.00
32348;DHT22;18821;44.800;10.326;2023-05-07T04:15:39;16.50;1.00
32348;DHT22;18821;44.800;10.326;2023-05-07T04:18:09;16.50;1.00
32348;DHT22;18821;44.800;10.326;2023-05-07T04:20:36;16.50;1.00
32348;DHT22;18821;44.800;10.326;2023-05-07T04:23:04;16.40;1.00
32348;DHT22;18821;44.800;10.326;2023-05-07T04:25:30;16.50;1.00
32348;DHT22;18821;44.800;10.326;2023-05-07T04:28:04;16.40;1.00
32348;DHT22;18821;44.800;10.326;2023-05-07T04:30:30;16.50;1.00
32348;DHT22;18821;44.800;10.326;2023-05-07T04:32:56;16.50;1.00
32348;DHT22;18821;44.800;10.326;2023-05-07T04:35:24;16.60;1.00
32348;DHT22;18821;44.800;10.326;2023-05-07T04:37:51;16.60;1.00
32348;DHT22;18821;44.800;10.326;2023-05-07T04:40:17;16.60;1.00
32348;DHT22;18821;44.800;10.326;2023-05-07T04:42:43;16.50;1.00
32348;DHT22;18821;44.800;10.326;2023-05-07T04:45:09;16.40;1.00
32348;DHT22;18821;44.800;10.326;2023-05-07T04:47:38;16.50;1.00
32348;DHT22;18821;44.800;10.326;2023-05-07T04:50:06;16.60;1.00
32348;DHT22;18821;44.800;10.326;2023-05-07T04:52:33;16.70;1.00
32348;DHT22;18821;44.800;10.326;2023-05-07T04:55:00;16.80;1.00
32348;DHT22;18821;44.800;10.326;2023-05-07T04:57:29;16.80;1.00
32348;DHT22;18821;44.800;10.326;2023-05-07T04:59:55;16.80;1.00
32348;DHT22;18821;44.800;10.326;2023-05-07T05:02:21;17.00;1.00
32348;DHT22;18821;44.800;10.326;2023-05-07T05:04:47;17.10;1.00
32348;DHT22;18821;44.800;10.326;2023-05-07T05:07:13;17.20;1.00
32348;DHT22;18821;44.800;10.326;2023-05-07T05:09:40;17.40;1.00
32348;DHT22;18821;44.800;10.326;2023-05-07T05:12:07;17.50;1.00
32348;DHT22;18821;44.800;10.326;2023-05-07T05:14:35;17.50;1.00
32348;DHT22;18821;44.800;10.326;2023-05-07T05:17:00;17.50;1.00
32348;DHT22;18821;44.800;10.326;2023-05-07T05:19:27;17.50;1.00
32348;DHT22;18821;44.800;10.326;2023-05-07T05:21:53;17.60;1.00
32348;DHT22;18821;44.800;10.326;2023-05-07T05:24:19;17.70;1.00
32348;DHT22;18821;44.800;10.326;2023-05-07T05:26:45;17.80;1.00
32348;DHT22;18821;44.800;10.326;2023-05-07T05:29:11;17.90;1.00
32348;DHT22;18821;44.800;10.326;2023-05-07T05:31:40;17.90;1.00
32348;DHT22;18821;44.800;10.326;2023-05-07T05:34:07;17.80;1.00
32348;DHT22;18821;44.800;10.326;2023-05-07T05:36:34;17.90;1.00
32348;DHT22;18821;44.800;10.326;2023-05-07T05:39:00;17.80;1.00
32348;DHT22;18821;44.800;10.326;2023-05-07T05:41:27;17.90;1.00
32348;DHT22;18821;44.800;10.326;2023-05-07T05:43:53;17.90;1.00
32348;DHT22;18821;44.800;10.326;2023-05-07T05:46:19;18.00;1.00
32348;DHT22;18821;44.800;10.326;2023-05-07T05:48:46;18.10;1.00
32348;DHT22;18821;44.800;10.326;2023-05-07T05:51:12;18.30;1.00
32348;DHT22;18821;44.800;10.326;2023-05-07T05:53:38;18.40;1.00
32348;DHT22;18821;44.800;10.326;2023-05-07T05:56:05;18.50;1.00
32348;DHT22;18821;44.800;10.326;2023-05-07T05:58:34;18.60;1.00
32348;DHT22;18821;44.800;10.326;2023-05-07T06:01:03;18.80;1.00
32348;DHT22;18821;44.800;10.326;2023-05-07T06:03:31;19.20;1.00
32348;DHT22;18821;44.800;10.326;2023-05-07T06:06:01;19.30;1.00
32348;DHT22;18821;44.800;10.326;2023-05-07T06:08:29;19.70;1.00
32348;DHT22;18821;44.800;10.326;2023-05-07T06:10:56;20.10;99.90
32348;DHT22;18821;44.800;10.326;2023-05-07T06:13:22;20.50;99.90
32348;DHT22;18821;44.800;10.326;2023-05-07T06:15:50;20.70;99.90
32348;DHT22;18821;44.800;10.326;2023-05-07T06:18:16;20.70;99.90
32348;DHT22;18821;44.800;10.326;2023-05-07T06:20:42;20.90;72.80
32348;DHT22;18821;44.800;10.326;2023-05-07T06:23:14;21.10;99.90
32348;DHT22;18821;44.800;10.326;2023-05-07T06:25:40;21.30;1.00
32348;DHT22;18821;44.800;10.326;2023-05-07T06:28:06;21.00;80.30
32348;DHT22;18821;44.800;10.326;2023-05-07T06:30:35;21.20;99.90
32348;DHT22;18821;44.800;10.326;2023-05-07T06:33:02;21.30;1.00
32348;DHT22;18821;44.800;10.326;2023-05-07T06:35:28;21.20;97.00
32348;DHT22;18821;44.800;10.326;2023-05-07T06:37:54;20.80;99.90
32348;DHT22;18821;44.800;10.326;2023-05-07T06:40:23;20.80;99.90
32348;DHT22;18821;44.800;10.326;2023-05-07T06:42:50;20.80;99.90
32348;DHT22;18821;44.800;10.326;2023-05-07T06:45:45;20.70;99.90
32348;DHT22;18821;44.800;10.326;2023-05-07T06:48:11;20.50;99.90
32348;DHT22;18821;44.800;10.326;2023-05-07T06:50:46;20.60;99.90
32348;DHT22;18821;44.800;10.326;2023-05-07T06:53:12;20.50;99.90
32348;DHT22;18821;44.800;10.326;2023-05-07T06:55:38;20.40;99.90
32348;DHT22;18821;44.800;10.326;2023-05-07T06:58:05;20.10;99.90
32348;DHT22;18821;44.800;10.326;2023-05-07T07:00:34;19.90;1.00
32348;DHT22;18821;44.800;10.326;2023-05-07T07:03:00;20.10;1.00
32348;DHT22;18821;44.800;10.326;2023-05-07T07:05:27;19.90;1.00
32348;DHT22;18821;44.800;10.326;2023-05-07T07:07:54;20.10;1.00
32348;DHT22;18821;44.800;10.326;2023-05-07T07:10:21;20.40;99.90
32348;DHT22;18821;44.800;10.326;2023-05-07T07:12:50;20.60;99.90
32348;DHT22;18821;44.800;10.326;2023-05-07T07:15:16;20.10;1.00
32348;DHT22;18821;44.800;10.326;2023-05-07T07:17:42;19.80;1.00
32348;DHT22;18821;44.800;10.326;2023-05-07T07:20:09;19.90;1.00
32348;DHT22;18821;44.800;10.326;2023-05-07T07:22:35;20.30;1.00
32348;DHT22;18821;44.800;10.326;2023-05-07T07:25:02;20.50;1.00
32348;DHT22;18821;44.800;10.326;2023-05-07T07:27:28;20.80;99.90
32348;DHT22;18821;44.800;10.326;2023-05-07T07:29:54;21.00;99.90
32348;DHT22;18821;44.800;10.326;2023-05-07T07:32:20;21.20;99.90
32348;DHT22;18821;44.800;10.326;2023-05-07T07:34:46;21.00;99.90
32348;DHT22;18821;44.800;10.326;2023-05-07T07:37:13;21.30;99.90
32348;DHT22;18821;44.800;10.326;2023-05-07T07:39:41;21.40;99.90
32348;DHT22;18821;44.800;10.326;2023-05-07T07:42:08;21.80;99.90
32348;DHT22;18821;44.800;10.326;2023-05-07T07:44:34;21.40;99.90
32348;DHT22;18821;44.800;10.326;2023-05-07T07:47:08;21.60;99.90
32348;DHT22;18821;44.800;10.326;2023-05-07T07:49:34;21.80;99.90
32348;DHT22;18821;44.800;10.326;2023-05-07T07:52:04;22.10;99.90
32348;DHT22;18821;44.800;10.326;2023-05-07T07:54:32;22.40;1.00
32348;DHT22;18821;44.800;10.326;2023-05-07T07:56:59;22.70;1.00
32348;DHT22;18821;44.800;10.326;2023-05-07T07:59:28;22.90;1.00
32348;DHT22;18821;44.800;10.326;2023-05-07T08:01:54;23.00;1.00
32348;DHT22;18821;44.800;10.326;2023-05-07T08:04:23;23.00;99.90
32348;DHT22;18821;44.800;10.326;2023-05-07T08:06:50;23.00;99.90
32348;DHT22;18821;44.800;10.326;2023-05-07T08:09:16;23.20;99.90
32348;DHT22;18821;44.800;10.326;2023-05-07T08:11:42;23.30;99.90
32348;DHT22;18821;44.800;10.326;2023-05-07T08:14:08;23.40;99.90
32348;DHT22;18821;44.800;10.326;2023-05-07T08:16:34;23.40;17.60
32348;DHT22;18821;44.800;10.326;2023-05-07T08:19:01;23.40;1.90
32348;DHT22;18821;44.800;10.326;2023-05-07T08:21:27;23.20;99.90
32348;DHT22;18821;44.800;10.326;2023-05-07T08:23:53;23.20;99.90
32348;DHT22;18821;44.800;10.326;2023-05-07T08:26:21;23.20;99.90
32348;DHT22;18821;44.800;10.326;2023-05-07T08:28:48;23.20;99.90
32348;DHT22;18821;44.800;10.326;2023-05-07T08:31:14;22.80;99.90
32348;DHT22;18821;44.800;10.326;2023-05-07T08:33:43;22.70;99.90
32348;DHT22;18821;44.800;10.326;2023-05-07T08:36:09;22.30;1.00
32348;DHT22;18821;44.800;10.326;2023-05-07T08:38:35;22.20;1.00
32348;DHT22;18821;44.800;10.326;2023-05-07T08:41:01;22.30;1.00
32348;DHT22;18821;44.800;10.326;2023-05-07T08:43:31;22.40;1.00
32348;DHT22;18821;44.800;10.326;2023-05-07T08:46:00;22.70;99.90
32348;DHT22;18821;44.800;10.326;2023-05-07T08:48:31;22.90;99.90
32348;DHT22;18821;44.800;10.326;2023-05-07T08:51:12;23.10;81.60
32348;DHT22;18821;44.800;10.326;2023-05-07T08:53:41;23.20;1.00
32348;DHT22;18821;44.800;10.326;2023-05-07T08:56:08;23.40;99.90
32348;DHT22;18821;44.800;10.326;2023-05-07T08:58:35;23.50;99.90
32348;DHT22;18821;44.800;10.326;2023-05-07T09:01:09;23.60;1.00
32348;DHT22;18821;44.800;10.326;2023-05-07T09:03:37;23.80;1.00
32348;DHT22;18821;44.800;10.326;2023-05-07T09:06:05;23.40;1.00
32348;DHT22;18821;44.800;10.326;2023-05-07T09:08:33;23.20;99.90
32348;DHT22;18821;44.800;10.326;2023-05-07T09:11:10;23.40;99.90
32348;DHT22;18821;44.800;10.326;2023-05-07T09:13:38;23.50;99.90
32348;DHT22;18821;44.800;10.326;2023-05-07T09:16:12;24.00;70.70
32348;DHT22;18821;44.800;10.326;2023-05-07T09:18:42;24.40;99.90
32348;DHT22;18821;44.800;10.326;2023-05-07T09:21:20;24.70;1.00
32348;DHT22;18821;44.800;10.326;2023-05-07T09:23:50;24.70;99.90
32348;DHT22;18821;44.800;10.326;2023-05-07T09:26:17;24.60;99.90
32348;DHT22;18821;44.800;10.326;2023-05-07T09:28:44;24.70;99.90
32348;DHT22;18821;44.800;10.326;2023-05-07T09:31:12;24.40;99.90
32348;DHT22;18821;44.800;10.326;2023-05-07T09:33:40;23.90;99.90
32348;DHT22;18821;44.800;10.326;2023-05-07T09:36:08;23.70;1.00
32348;DHT22;18821;44.800;10.326;2023-05-07T09:38:38;23.90;99.90
32348;DHT22;18821;44.800;10.326;2023-05-07T09:41:06;23.90;1.00
32348;DHT22;18821;44.800;10.326;2023-05-07T09:43:39;23.80;1.00
32348;DHT22;18821;44.800;10.326;2023-05-07T09:46:11;24.00;1.00
32348;DHT22;18821;44.800;10.326;2023-05-07T09:48:42;23.90;69.80
32348;DHT22;18821;44.800;10.326;2023-05-07T09:51:25;23.90;99.90
32348;DHT22;18821;44.800;10.326;2023-05-07T09:53:57;24.10;99.90
32348;DHT22;18821;44.800;10.326;2023-05-07T09:56:27;24.30;1.00
32348;DHT22;18821;44.800;10.326;2023-05-07T09:58:54;24.30;99.90
32348;DHT22;18821;44.800;10.326;2023-05-07T10:01:23;24.60;99.90
32348;DHT22;18821;44.800;10.326;2023-05-07T10:03:51;24.00;99.90
32348;DHT22;18821;44.800;10.326;2023-05-07T10:06:20;23.90;1.00
32348;DHT22;18821;44.800;10.326;2023-05-07T10:08:46;23.70;1.00
32348;DHT22;18821;44.800;10.326;2023-05-07T10:11:14;24.10;1.00
32348;DHT22;18821;44.800;10.326;2023-05-07T10:13:42;24.50;99.90
32348;DHT22;18821;44.800;10.326;2023-05-07T10:16:09;25.00;99.90
32348;DHT22;18821;44.800;10.326;2023-05-07T10:18:43;25.10;1.00
32348;DHT22;18821;44.800;10.326;2023-05-07T10:21:19;25.00;99.90
32348;DHT22;18821;44.800;10.326;2023-05-07T10:23:53;25.00;99.90
32348;DHT22;18821;44.800;10.326;2023-05-07T10:26:23;25.30;99.90
32348;DHT22;18821;44.800;10.326;2023-05-07T10:28:54;25.40;99.90
32348;DHT22;18821;44.800;10.326;2023-05-07T10:34:11;25.40;99.90
32348;DHT22;18821;44.800;10.326;2023-05-07T10:36:38;25.30;99.90
32348;DHT22;18821;44.800;10.326;2023-05-07T10:39:06;25.20;1.00
32348;DHT22;18821;44.800;10.326;2023-05-07T10:41:32;25.50;1.00
32348;DHT22;18821;44.800;10.326;2023-05-07T10:43:59;25.30;99.90
32348;DHT22;18821;44.800;10.326;2023-05-07T10:46:30;25.50;99.90
32348;DHT22;18821;44.800;10.326;2023-05-07T10:49:07;25.30;99.90
32348;DHT22;18821;44.800;10.326;2023-05-07T10:51:41;25.30;99.90
32348;DHT22;18821;44.800;10.326;2023-05-07T10:54:19;25.30;99.90
32348;DHT22;18821;44.800;10.326;2023-05-07T10:56:54;25.50;99.90
32348;DHT22;18821;44.800;10.326;2023-05-07T10:59:31;25.80;1.00
32348;DHT22;18821;44.800;10.326;2023-05-07T11:02:03;25.70;1.00
32348;DHT22;18821;44.800;10.326;2023-05-07T11:05:31;25.90;1.00
32348;DHT22;18821;44.800;10.326;2023-05-07T11:08:05;25.40;47.60
32348;DHT22;18821;44.800;10.326;2023-05-07T11:10:53;25.70;1.00
32348;DHT22;18821;44.800;10.326;2023-05-07T11:13:43;25.90;1.00
32348;DHT22;18821;44.800;10.326;2023-05-07T11:16:21;26.00;99.90
32348;DHT22;18821;44.800;10.326;2023-05-07T11:18:55;26.00;99.90
32348;DHT22;18821;44.800;10.326;2023-05-07T11:21:41;26.00;99.90
32348;DHT22;18821;44.800;10.326;2023-05-07T11:24:26;26.20;99.90
32348;DHT22;18821;44.800;10.326;2023-05-07T11:27:04;25.90;99.90
32348;DHT22;18821;44.800;10.326;2023-05-07T11:29:31;25.90;1.00
32348;DHT22;18821;44.800;10.326;2023-05-07T11:32:03;25.80;1.00
32348;DHT22;18821;44.800;10.326;2023-05-07T11:34:35;26.10;99.90
32348;DHT22;18821;44.800;10.326;2023-05-07T11:37:02;25.60;1.00
32348;DHT22;18821;44.800;10.326;2023-05-07T11:39:42;25.60;1.00
32348;DHT22;18821;44.800;10.326;2023-05-07T11:42:31;26.10;99.90
32348;DHT22;18821;44.800;10.326;2023-05-07T11:44:58;26.60;99.90
32348;DHT22;18821;44.800;10.326;2023-05-07T11:47:24;26.90;1.00
32348;DHT22;18821;44.800;10.326;2023-05-07T11:49:55;26.70;1.00
32348;DHT22;18821;44.800;10.326;2023-05-07T11:52:22;26.20;1.00
32348;DHT22;18821;44.800;10.326;2023-05-07T11:54:59;26.50;1.00
32348;DHT22;18821;44.800;10.326;2023-05-07T11:57:29;26.70;1.00
32348;DHT22;18821;44.800;10.326;2023-05-07T11:59:59;26.80;1.00
32348;DHT22;18821;44.800;10.326;2023-05-07T12:02:27;27.10;99.90
32348;DHT22;18821;44.800;10.326;2023-05-07T12:04:54;26.40;99.90
32348;DHT22;18821;44.800;10.326;2023-05-07T12:07:20;26.00;1.00
32348;DHT22;18821;44.800;10.326;2023-05-07T12:09:47;25.90;1.00
32348;DHT22;18821;44.800;10.326;2023-05-07T12:12:14;25.90;1.00
32348;DHT22;18821;44.800;10.326;2023-05-07T12:14:44;25.90;1.00
32348;DHT22;18821;44.800;10.326;2023-05-07T12:17:12;26.40;1.00
32348;DHT22;18821;44.800;10.326;2023-05-07T12:19:40;26.50;99.90
32348;DHT22;18821;44.800;10.326;2023-05-07T12:22:10;26.40;1.00
32348;DHT22;18821;44.800;10.326;2023-05-07T12:24:56;26.70;99.90
32348;DHT22;18821;44.800;10.326;2023-05-07T12:27:22;26.80;99.90
32348;DHT22;18821;44.800;10.326;2023-05-07T12:29:49;26.90;99.90
32348;DHT22;18821;44.800;10.326;2023-05-07T12:32:17;27.00;99.90
32348;DHT22;18821;44.800;10.326;2023-05-07T12:34:44;27.00;99.90
32348;DHT22;18821;44.800;10.326;2023-05-07T12:37:10;27.30;1.00
32348;DHT22;18821;44.800;10.326;2023-05-07T12:39:43;27.10;99.90
32348;DHT22;18821;44.800;10.326;2023-05-07T12:42:15;26.80;1.00
32348;DHT22;18821;44.800;10.326;2023-05-07T12:44:41;26.80;1.00
32348;DHT22;18821;44.800;10.326;2023-05-07T12:47:09;27.00;99.90
32348;DHT22;18821;44.800;10.326;2023-05-07T12:49:35;27.10;1.00
32348;DHT22;18821;44.800;10.326;2023-05-07T12:52:06;27.20;1.00
32348;DHT22;18821;44.800;10.326;2023-05-07T12:54:37;27.40;83.40
32348;DHT22;18821;44.800;10.326;2023-05-07T12:57:08;27.30;99.90
32348;DHT22;18821;44.800;10.326;2023-05-07T12:59:41;27.60;99.90
32348;DHT22;18821;44.800;10.326;2023-05-07T13:02:08;27.50;99.90
32348;DHT22;18821;44.800;10.326;2023-05-07T13:04:36;27.80;99.90
32348;DHT22;18821;44.800;10.326;2023-05-07T13:07:02;27.60;99.90
32348;DHT22;18821;44.800;10.326;2023-05-07T13:09:28;27.80;99.90
32348;DHT22;18821;44.800;10.326;2023-05-07T13:11:55;27.80;99.90
32348;DHT22;18821;44.800;10.326;2023-05-07T13:14:21;27.90;99.90
32348;DHT22;18821;44.800;10.326;2023-05-07T13:16:47;27.40;99.90
32348;DHT22;18821;44.800;10.326;2023-05-07T13:19:13;27.40;99.90
32348;DHT22;18821;44.800;10.326;2023-05-07T13:21:39;27.20;99.90
32348;DHT22;18821;44.800;10.326;2023-05-07T13:24:05;26.50;99.90
32348;DHT22;18821;44.800;10.326;2023-05-07T13:26:31;26.40;99.90
32348;DHT22;18821;44.800;10.326;2023-05-07T13:28:57;26.40;99.90
32348;DHT22;18821;44.800;10.326;2023-05-07T13:31:24;26.30;99.90
32348;DHT22;18821;44.800;10.326;2023-05-07T13:33:50;26.10;99.90
32348;DHT22;18821;44.800;10.326;2023-05-07T13:36:16;26.10;99.90
32348;DHT22;18821;44.800;10.326;2023-05-07T13:38:42;26.00;99.90
32348;DHT22;18821;44.800;10.326;2023-05-07T13:41:08;26.10;99.90
32348;DHT22;18821;44.800;10.326;2023-05-07T13:43:34;26.30;99.90
32348;DHT22;18821;44.800;10.326;2023-05-07T13:46:00;26.20;99.90
32348;DHT22;18821;44.800;10.326;2023-05-07T13:48:26;26.70;99.90
32348;DHT22;18821;44.800;10.326;2023-05-07T13:50:54;27.00;99.90
32348;DHT22;18821;44.800;10.326;2023-05-07T13:53:19;27.10;99.90
32348;DHT22;18821;44.800;10.326;2023-05-07T13:55:45;27.30;99.90
32348;DHT22;18821;44.800;10.326;2023-05-07T13:58:11;27.40;99.90
32348;DHT22;18821;44.800;10.326;2023-05-07T14:00:37;27.60;99.90
32348;DHT22;18821;44.800;10.326;2023-05-07T14:03:05;27.60;99.90
32348;DHT22;18821;44.800;10.326;2023-05-07T14:05:31;27.30;99.90
32348;DHT22;18821;44.800;10.326;2023-05-07T14:07:57;27.10;99.90
32348;DHT22;18821;44.800;10.326;2023-05-07T14:10:24;27.00;99.90
32348;DHT22;18821;44.800;10.326;2023-05-07T14:12:50;27.20;99.90
32348;DHT22;18821;44.800;10.326;2023-05-07T14:15:16;27.40;99.90
32348;DHT22;18821;44.800;10.326;2023-05-07T14:17:43;27.60;99.90
32348;DHT22;18821;44.800;10.326;2023-05-07T14:20:09;27.60;99.90
32348;DHT22;18821;44.800;10.326;2023-05-07T14:22:38;27.60;99.90
32348;DHT22;18821;44.800;10.326;2023-05-07T14:25:05;27.60;99.90
32348;DHT22;18821;44.800;10.326;2023-05-07T14:27:31;27.60;99.90
32348;DHT22;18821;44.800;10.326;2023-05-07T14:29:57;27.20;99.90
32348;DHT22;18821;44.800;10.326;2023-05-07T14:32:23;27.40;99.90
32348;DHT22;18821;44.800;10.326;2023-05-07T14:34:49;27.50;99.90
32348;DHT22;18821;44.800;10.326;2023-05-07T14:37:15;27.70;99.90
32348;DHT22;18821;44.800;10.326;2023-05-07T14:39:41;27.90;99.90
32348;DHT22;18821;44.800;10.326;2023-05-07T14:42:07;27.80;99.90
32348;DHT22;18821;44.800;10.326;2023-05-07T14:44:36;27.80;99.90
32348;DHT22;18821;44.800;10.326;2023-05-07T14:47:02;27.90;99.90
32348;DHT22;18821;44.800;10.326;2023-05-07T14:49:28;28.00;99.90
32348;DHT22;18821;44.800;10.326;2023-05-07T14:51:57;28.00;99.90
32348;DHT22;18821;44.800;10.326;2023-05-07T14:54:24;27.80;99.90
32348;DHT22;18821;44.800;10.326;2023-05-07T14:56:49;27.70;99.90
32348;DHT22;18821;44.800;10.326;2023-05-07T14:59:15;27.70;99.90
32348;DHT22;18821;44.800;10.326;2023-05-07T15:01:44;27.60;99.90
32348;DHT22;18821;44.800;10.326;2023-05-07T15:04:11;27.40;99.90
32348;DHT22;18821;44.800;10.326;2023-05-07T15:06:37;27.30;99.90
32348;DHT22;18821;44.800;10.326;2023-05-07T15:09:03;27.30;99.90
32348;DHT22;18821;44.800;10.326;2023-05-07T15:11:28;27.40;99.90
32348;DHT22;18821;44.800;10.326;2023-05-07T15:13:54;27.50;99.90
32348;DHT22;18821;44.800;10.326;2023-05-07T15:16:20;27.50;99.90
32348;DHT22;18821;44.800;10.326;2023-05-07T15:18:46;27.20;99.90
32348;DHT22;18821;44.800;10.326;2023-05-07T15:21:12;27.30;99.90
32348;DHT22;18821;44.800;10.326;2023-05-07T15:23:40;27.40;99.90
32348;DHT22;18821;44.800;10.326;2023-05-07T15:26:06;27.40;99.90
32348;DHT22;18821;44.800;10.326;2023-05-07T15:28:33;27.50;99.90
32348;DHT22;18821;44.800;10.326;2023-05-07T15:30:59;27.40;99.90
32348;DHT22;18821;44.800;10.326;2023-05-07T15:33:25;27.50;99.90